Time;durP1;ratioP1;P1;durP2;ratioP2;P2;SDS_P1;SDS_P2;PMS_P1;PMS_P2;Temp;Humidity;BMP_temperature;BMP_pressure;BME280_temperature;BME280_humidity;BME280_pressure;Samples;Min_cycle;Max_cycle;Signal;HPM_P1;HPM_P2
2023/04/23 00:00:59;;;;;;;1.30;1.30;;;18.50;65.40;;;;;;5066781;28;43890;-69
2023/04/23 00:03:27;;;;;;;1.50;1.50;;;18.50;65.30;;;;;;5066094;28;43457;-70
2023/04/23 00:05:56;;;;;;;1.40;1.40;;;18.50;65.20;;;;;;5065119;28;43449;-70
2023/04/23 00:08:24;;;;;;;1.33;1.33;;;18.50;65.20;;;;;;5066133;28;43410;-69
2023/04/23 00:10:54;;;;;;;1.40;1.40;;;18.40;65.20;;;;;;5066490;28;43722;-69
2023/04/23 00:13:23;;;;;;;1.40;1.40;;;18.40;65.60;;;;;;5066236;28;43474;-70
2023/04/23 00:15:51;;;;;;;1.40;1.40;;;18.50;65.70;;;;;;5066426;28;44135;-70
2023/04/23 00:18:19;;;;;;;1.43;1.43;;;18.50;65.40;;;;;;5065054;28;43450;-70
2023/04/23 00:20:47;;;;;;;1.43;1.43;;;18.60;65.10;;;;;;5064552;28;43914;-70
2023/04/23 00:23:15;;;;;;;1.30;1.30;;;18.60;65.00;;;;;;5065769;28;44030;-70
2023/04/23 00:25:43;;;;;;;1.27;1.27;;;18.60;64.80;;;;;;5066345;28;43428;-70
2023/04/23 00:28:12;;;;;;;1.30;1.30;;;18.60;65.10;;;;;;5066823;28;43462;-69
2023/04/23 00:30:41;;;;;;;1.30;1.30;;;18.60;65.10;;;;;;5066144;28;43829;-69
2023/04/23 00:33:09;;;;;;;1.40;1.40;;;18.60;65.00;;;;;;5064177;28;45123;-69
2023/04/23 00:35:38;;;;;;;1.33;1.33;;;18.60;65.00;;;;;;5065757;28;43376;-69
2023/04/23 00:38:05;;;;;;;1.37;1.37;;;18.50;65.00;;;;;;5066420;28;43940;-69
2023/04/23 00:40:33;;;;;;;1.40;1.40;;;18.50;65.20;;;;;;5066335;28;44123;-70
2023/04/23 00:43:01;;;;;;;1.30;1.30;;;18.50;65.50;;;;;;5065825;28;43531;-71
2023/04/23 00:45:31;;;;;;;1.47;1.47;;;18.50;65.50;;;;;;5066180;28;43385;-70
2023/04/23 00:47:59;;;;;;;1.27;1.27;;;18.40;65.30;;;;;;5064620;28;43864;-70
2023/04/23 00:50:27;;;;;;;1.20;1.20;;;18.40;65.30;;;;;;5061900;28;43603;-69
2023/04/23 00:52:55;;;;;;;1.30;1.30;;;18.40;65.30;;;;;;5063948;28;43341;-69
2023/04/23 00:55:23;;;;;;;1.20;1.20;;;18.40;65.80;;;;;;5066085;28;43453;-70
2023/04/23 00:57:53;;;;;;;1.40;1.40;;;18.40;65.70;;;;;;5065991;28;43462;-70
2023/04/23 01:00:20;;;;;;;1.40;1.40;;;18.50;65.50;;;;;;5054648;28;43901;-70
2023/04/23 01:02:51;;;;;;;1.30;1.30;;;18.60;65.30;;;;;;5063509;28;43467;-70
2023/04/23 01:05:22;;;;;;;1.30;1.30;;;18.60;65.00;;;;;;5052611;28;43565;-70
2023/04/23 01:07:50;;;;;;;1.30;1.30;;;18.60;65.00;;;;;;5062759;28;43487;-70
2023/04/23 01:10:18;;;;;;;1.30;1.30;;;18.60;65.50;;;;;;5059366;28;43759;-70
2023/04/23 01:12:46;;;;;;;1.20;1.20;;;18.50;65.20;;;;;;5064253;28;44675;-70
2023/04/23 01:15:14;;;;;;;1.30;1.30;;;18.60;65.20;;;;;;5064087;28;44036;-70
2023/04/23 01:17:42;;;;;;;1.30;1.30;;;18.50;65.10;;;;;;5060924;28;44567;-70
2023/04/23 01:20:11;;;;;;;1.30;1.30;;;18.50;65.20;;;;;;5064726;28;43828;-70
2023/04/23 01:22:41;;;;;;;1.20;1.20;;;18.40;65.40;;;;;;5063852;28;45139;-70
2023/04/23 01:25:10;;;;;;;1.57;1.30;;;18.40;65.60;;;;;;5064330;28;43344;-71
2023/04/23 01:27:38;;;;;;;1.53;1.53;;;18.40;65.50;;;;;;5064035;28;43557;-70
2023/04/23 01:30:07;;;;;;;1.30;1.30;;;18.50;65.40;;;;;;5065009;28;43668;-70
2023/04/23 01:32:35;;;;;;;1.40;1.40;;;18.40;65.40;;;;;;5067211;28;44835;-70
2023/04/23 01:35:04;;;;;;;1.30;1.30;;;18.40;65.50;;;;;;5069062;28;43465;-71
2023/04/23 01:37:32;;;;;;;1.40;1.40;;;18.40;65.80;;;;;;5067620;28;43526;-70
2023/04/23 01:40:01;;;;;;;1.40;1.40;;;18.40;65.80;;;;;;5068969;28;43942;-70
2023/04/23 01:42:29;;;;;;;1.30;1.30;;;18.50;65.60;;;;;;5062277;28;44698;-71
2023/04/23 01:44:57;;;;;;;1.20;1.20;;;18.60;65.20;;;;;;5062199;28;43572;-70
2023/04/23 01:47:25;;;;;;;1.20;1.20;;;18.60;65.00;;;;;;5069056;28;43458;-71
2023/04/23 01:49:53;;;;;;;1.37;1.37;;;18.60;64.80;;;;;;5068471;28;43618;-71
2023/04/23 01:52:21;;;;;;;1.27;1.27;;;18.60;65.10;;;;;;5055352;28;44677;-71
2023/04/23 01:54:49;;;;;;;1.40;1.40;;;18.60;65.10;;;;;;5068701;28;43355;-71
2023/04/23 01:57:22;;;;;;;1.20;1.20;;;18.60;65.00;;;;;;5069211;28;43766;-70
2023/04/23 01:59:50;;;;;;;1.40;1.40;;;18.60;65.00;;;;;;5061503;28;45521;-70
2023/04/23 02:02:19;;;;;;;1.40;1.40;;;18.50;64.90;;;;;;5068017;28;43445;-70
2023/04/23 02:04:48;;;;;;;1.30;1.30;;;18.50;65.10;;;;;;5066792;28;43399;-70
2023/04/23 02:07:16;;;;;;;1.50;1.50;;;18.50;65.60;;;;;;5067381;28;43477;-70
2023/04/23 02:09:44;;;;;;;1.20;1.20;;;18.50;65.50;;;;;;5068514;28;43926;-70
2023/04/23 02:12:12;;;;;;;1.20;1.20;;;18.50;65.30;;;;;;5066488;28;44919;-71
2023/04/23 02:14:42;;;;;;;1.10;1.10;;;18.50;65.40;;;;;;5067818;28;44045;-70
2023/04/23 02:17:11;;;;;;;1.20;1.20;;;18.40;65.40;;;;;;5055155;28;43531;-70
2023/04/23 02:19:41;;;;;;;1.20;1.20;;;18.40;65.70;;;;;;5064688;28;45839;-70
2023/04/23 02:22:09;;;;;;;1.30;1.30;;;18.40;65.80;;;;;;5066749;28;43542;-70
2023/04/23 02:24:37;;;;;;;1.23;1.23;;;18.40;65.50;;;;;;5068006;28;43372;-70
2023/04/23 02:27:07;;;;;;;1.30;1.30;;;18.40;65.50;;;;;;5068142;28;43542;-70
2023/04/23 02:29:35;;;;;;;1.30;1.30;;;18.40;65.50;;;;;;5067930;28;43825;-70
2023/04/23 02:32:05;;;;;;;1.30;1.30;;;18.40;65.50;;;;;;5056620;28;44756;-70
2023/04/23 02:34:33;;;;;;;1.30;1.30;;;18.40;65.90;;;;;;5067660;28;43418;-70
2023/04/23 02:37:03;;;;;;;1.27;1.27;;;18.40;65.90;;;;;;5067081;28;43460;-71
2023/04/23 02:39:31;;;;;;;1.07;1.07;;;18.50;65.60;;;;;;5067753;28;43900;-71
2023/04/23 02:41:59;;;;;;;1.37;1.37;;;18.60;65.30;;;;;;5067541;28;43541;-70
2023/04/23 02:44:27;;;;;;;1.37;1.37;;;18.70;65.10;;;;;;5067978;28;43482;-70
2023/04/23 02:46:56;;;;;;;1.20;1.20;;;18.70;64.80;;;;;;5068308;28;43393;-70
2023/04/23 02:49:25;;;;;;;1.33;1.33;;;18.70;65.80;;;;;;5066673;28;45688;-71
2023/04/23 02:51:53;;;;;;;1.20;1.20;;;18.70;65.20;;;;;;5067520;28;43894;-70
2023/04/23 02:54:25;;;;;;;1.27;1.27;;;18.60;65.00;;;;;;5065818;28;43507;-71
2023/04/23 02:56:53;;;;;;;1.27;1.27;;;18.60;64.90;;;;;;5068108;28;43446;-70
2023/04/23 02:59:20;;;;;;;1.30;1.30;;;18.60;65.00;;;;;;5067568;28;43847;-70
2023/04/23 03:01:49;;;;;;;1.30;1.30;;;18.50;65.10;;;;;;5065949;28;45044;-70
2023/04/23 03:04:17;;;;;;;1.40;1.40;;;18.50;65.50;;;;;;5066069;28;43459;-71
2023/04/23 03:06:46;;;;;;;1.30;1.30;;;18.50;65.60;;;;;;5067513;28;43399;-71
2023/04/23 03:09:15;;;;;;;1.33;1.33;;;18.40;65.40;;;;;;5054133;28;45982;-70
2023/04/23 03:11:43;;;;;;;1.37;1.37;;;18.40;65.40;;;;;;5061456;28;44591;-71
2023/04/23 03:14:13;;;;;;;1.30;1.30;;;18.40;65.40;;;;;;5064875;28;43328;-70
2023/04/23 03:16:41;;;;;;;1.30;1.30;;;18.40;65.50;;;;;;5067794;28;43979;-70
2023/04/23 03:19:09;;;;;;;1.20;1.20;;;18.40;65.90;;;;;;5063356;28;44876;-70
2023/04/23 03:21:37;;;;;;;1.13;1.13;;;18.40;65.90;;;;;;5063837;28;43886;-70
2023/04/23 03:24:07;;;;;;;1.30;1.30;;;18.50;65.70;;;;;;5067204;28;43473;-70
2023/04/23 03:26:35;;;;;;;1.20;1.20;;;18.50;65.40;;;;;;5066189;28;43594;-70
2023/04/23 03:29:05;;;;;;;1.23;1.23;;;18.50;65.30;;;;;;5067231;28;43926;-71
2023/04/23 03:31:33;;;;;;;1.40;1.40;;;18.50;65.30;;;;;;5065187;28;43999;-70
2023/04/23 03:34:02;;;;;;;1.10;1.10;;;18.40;65.60;;;;;;5065852;28;43347;-70
2023/04/23 03:36:33;;;;;;;1.30;1.30;;;18.40;65.60;;;;;;5050141;28;43577;-70
2023/04/23 03:39:02;;;;;;;1.40;1.40;;;18.50;65.50;;;;;;5047428;28;45590;-70
2023/04/23 03:41:43;;;;;;;1.30;1.30;;;18.40;65.40;;;;;;5071361;28;44580;-70
2023/04/23 03:44:12;;;;;;;1.30;1.30;;;18.40;65.50;;;;;;5062309;28;44091;-71
2023/04/23 03:46:43;;;;;;;1.23;1.23;;;18.40;65.70;;;;;;5061414;28;43898;-70
2023/04/23 03:49:11;;;;;;;1.27;1.27;;;18.40;65.90;;;;;;5065479;28;45856;-70
2023/04/23 03:51:40;;;;;;;1.20;1.20;;;18.40;65.80;;;;;;5066276;28;44056;-70
2023/04/23 03:54:10;;;;;;;1.10;1.10;;;18.50;65.50;;;;;;5064873;28;44135;-71
2023/04/23 03:56:46;;;;;;;1.30;1.30;;;18.60;65.20;;;;;;5064565;28;43785;-70
2023/04/23 03:59:27;;;;;;;1.30;1.30;;;18.70;65.10;;;;;;5065466;28;45908;-71
2023/04/23 04:01:58;;;;;;;1.20;1.20;;;18.60;64.80;;;;;;5054630;28;43371;-70
2023/04/23 04:04:27;;;;;;;1.17;1.17;;;18.70;65.30;;;;;;5066478;28;43350;-71
2023/04/23 04:06:56;;;;;;;1.20;1.20;;;18.60;65.10;;;;;;5064049;28;43581;-71
2023/04/23 04:09:27;;;;;;;1.27;1.27;;;18.70;65.10;;;;;;5065099;28;45763;-71
2023/04/23 04:11:56;;;;;;;1.10;1.10;;;18.60;65.10;;;;;;5048714;28;45105;-70
2023/04/23 04:14:24;;;;;;;1.20;1.20;;;18.50;65.20;;;;;;5066510;28;43446;-70
2023/04/23 04:16:52;;;;;;;1.07;1.07;;;18.50;65.40;;;;;;5066737;28;43400;-70
2023/04/23 04:19:20;;;;;;;1.10;1.10;;;18.50;65.60;;;;;;5065126;28;43813;-70
2023/04/23 04:21:48;;;;;;;1.10;1.10;;;18.50;65.50;;;;;;5064803;28;45338;-70
2023/04/23 04:24:17;;;;;;;1.30;1.30;;;18.50;65.40;;;;;;5066308;28;43430;-69
2023/04/23 04:26:45;;;;;;;1.20;1.20;;;18.50;65.50;;;;;;5065802;28;43912;-70
2023/04/23 04:29:14;;;;;;;1.33;1.33;;;18.40;65.50;;;;;;5058965;28;46024;-70
2023/04/23 04:31:42;;;;;;;1.20;1.20;;;18.40;65.70;;;;;;5060993;28;43434;-70
2023/04/23 04:34:13;;;;;;;1.40;1.40;;;18.40;65.90;;;;;;5059052;28;43921;-70
2023/04/23 04:36:41;;;;;;;1.30;1.30;;;18.50;65.80;;;;;;5066827;28;43434;-69
2023/04/23 04:39:09;;;;;;;1.30;1.30;;;18.60;65.50;;;;;;5065977;28;43979;-70
2023/04/23 04:41:37;;;;;;;1.40;1.40;;;18.60;65.20;;;;;;5065452;28;43460;-70
2023/04/23 04:44:06;;;;;;;1.30;1.30;;;18.60;65.00;;;;;;5064668;28;43391;-70
2023/04/23 04:46:39;;;;;;;1.30;1.30;;;18.60;65.30;;;;;;5065558;28;43370;-71
2023/04/23 04:49:08;;;;;;;1.40;1.40;;;18.60;65.40;;;;;;5066155;28;43827;-70
2023/04/23 04:51:36;;;;;;;1.50;1.50;;;18.60;65.30;;;;;;5062788;28;45186;-71
2023/04/23 04:54:05;;;;;;;1.20;1.20;;;18.50;65.10;;;;;;5059670;28;43390;-71
2023/04/23 04:56:33;;;;;;;1.07;1.07;;;18.50;65.30;;;;;;5059677;28;43438;-71
2023/04/23 04:59:01;;;;;;;1.20;1.20;;;18.50;65.50;;;;;;5065973;28;43741;-71
2023/04/23 05:01:29;;;;;;;1.20;1.20;;;18.40;65.60;;;;;;5065623;28;43785;-70
2023/04/23 05:03:59;;;;;;;1.03;1.03;;;18.40;65.70;;;;;;5061408;28;43462;-70
2023/04/23 05:06:28;;;;;;;1.20;1.20;;;18.50;65.60;;;;;;5067776;28;43425;-70
2023/04/23 05:08:56;;;;;;;1.20;1.20;;;18.40;65.50;;;;;;5069548;28;43595;-70
2023/04/23 05:11:24;;;;;;;1.20;1.20;;;18.40;65.60;;;;;;5063828;28;43485;-70
2023/04/23 05:13:52;;;;;;;1.30;1.30;;;18.40;65.70;;;;;;5069580;28;43339;-70
2023/04/23 05:16:20;;;;;;;1.20;1.20;;;18.40;65.80;;;;;;5063900;28;43426;-70
2023/04/23 05:18:48;;;;;;;1.20;1.20;;;18.40;65.70;;;;;;5068660;28;43869;-70
2023/04/23 05:21:18;;;;;;;1.17;1.17;;;18.40;65.50;;;;;;5069337;28;43462;-70
2023/04/23 05:23:46;;;;;;;1.23;1.23;;;18.40;65.70;;;;;;5062181;28;43478;-70
2023/04/23 05:26:14;;;;;;;1.10;1.10;;;18.40;65.70;;;;;;5069610;28;43409;-70
2023/04/23 05:28:42;;;;;;;1.20;1.20;;;18.40;66.00;;;;;;5068395;28;43926;-70
2023/04/23 05:31:10;;;;;;;1.10;1.10;;;18.50;65.90;;;;;;5065560;28;43478;-70
2023/04/23 05:33:38;;;;;;;1.30;1.30;;;18.50;65.50;;;;;;5062415;28;43698;-70
2023/04/23 05:36:18;;;;;;;1.30;1.30;;;18.70;65.40;;;;;;5066153;28;43384;-70
2023/04/23 05:38:47;;;;;;;1.13;1.13;;;18.70;65.00;;;;;;5067397;28;46237;-70
2023/04/23 05:41:15;;;;;;;1.30;1.30;;;18.70;64.80;;;;;;5067305;28;45039;-70
2023/04/23 05:43:43;;;;;;;1.10;1.10;;;18.60;64.80;;;;;;5068192;28;43976;-71
2023/04/23 05:46:11;;;;;;;1.20;1.20;;;18.60;65.10;;;;;;5069721;28;43374;-70
2023/04/23 05:48:39;;;;;;;1.20;1.20;;;18.50;65.10;;;;;;5068656;28;43757;-70
2023/04/23 05:51:07;;;;;;;1.30;1.30;;;18.50;65.30;;;;;;5067481;28;44586;-70
2023/04/23 05:53:36;;;;;;;1.03;1.03;;;18.50;65.50;;;;;;5067363;28;43904;-71
2023/04/23 05:56:04;;;;;;;1.20;1.20;;;18.40;65.50;;;;;;5069924;28;43450;-70
2023/04/23 05:58:32;;;;;;;1.07;1.07;;;18.40;65.70;;;;;;5066851;28;44593;-70
2023/04/23 06:01:01;;;;;;;1.20;1.20;;;18.40;66.00;;;;;;5068030;28;44032;-71
2023/04/23 06:03:29;;;;;;;1.10;1.10;;;18.50;65.90;;;;;;5059544;28;43497;-71
2023/04/23 06:05:58;;;;;;;1.20;1.20;;;18.60;65.60;;;;;;5068335;28;43376;-71
2023/04/23 06:08:26;;;;;;;1.23;1.20;;;18.70;65.30;;;;;;5059252;28;45442;-70
2023/04/23 06:10:55;;;;;;;1.47;1.47;;;18.90;64.80;;;;;;5067639;28;43455;-70
2023/04/23 06:13:23;;;;;;;1.30;1.30;;;19.10;64.30;;;;;;5066490;28;43359;-70
2023/04/23 06:15:53;;;;;;;1.10;1.10;;;19.20;63.50;;;;;;5063178;28;43645;-70
2023/04/23 06:18:21;;;;;;;1.17;1.17;;;19.40;63.00;;;;;;5064524;28;43603;-70
2023/04/23 06:20:50;;;;;;;1.17;1.17;;;19.60;62.60;;;;;;5067127;28;43640;-70
2023/04/23 06:23:18;;;;;;;1.20;1.20;;;19.70;62.00;;;;;;5067415;28;43429;-70
2023/04/23 06:25:46;;;;;;;1.03;1.03;;;19.80;61.80;;;;;;5066052;28;43859;-70
2023/04/23 06:28:15;;;;;;;2.67;1.40;;;19.90;61.60;;;;;;5065633;28;45579;-70
2023/04/23 06:31:04;;;;;;;1.00;1.00;;;19.90;61.50;;;;;;5066965;28;43351;-70
2023/04/23 06:33:33;;;;;;;1.20;1.20;;;19.80;61.90;;;;;;5078817;27;43341;-70
2023/04/23 06:36:01;;;;;;;1.20;1.20;;;19.60;62.20;;;;;;5067408;28;43486;-71
2023/04/23 06:38:29;;;;;;;1.30;1.30;;;19.40;62.70;;;;;;5065757;28;47116;-70
2023/04/23 06:40:57;;;;;;;1.13;1.13;;;19.30;63.30;;;;;;5058216;28;43426;-70
2023/04/23 06:43:26;;;;;;;1.10;1.10;;;19.20;63.50;;;;;;5071506;28;43760;-70
2023/04/23 06:46:17;;;;;;;1.13;1.13;;;19.20;63.80;;;;;;5063353;28;43489;-70
2023/04/23 06:48:45;;;;;;;1.10;1.10;;;19.00;63.80;;;;;;5066975;28;43884;-70
2023/04/23 06:51:13;;;;;;;1.30;1.30;;;18.90;64.00;;;;;;5065502;28;45113;-70
2023/04/23 06:53:41;;;;;;;1.10;1.10;;;18.80;64.80;;;;;;5064608;28;43429;-70
2023/04/23 06:56:09;;;;;;;1.07;1.07;;;18.80;65.00;;;;;;5056221;28;43428;-71
2023/04/23 06:58:41;;;;;;;1.10;1.10;;;18.70;64.80;;;;;;5064662;28;45714;-70
2023/04/23 07:01:16;;;;;;;1.20;1.20;;;18.70;64.70;;;;;;5025153;28;1132560;-70
2023/04/23 07:03:47;;;;;;;1.30;1.30;;;18.60;64.70;;;;;;5065636;28;43446;-70
2023/04/23 07:06:15;;;;;;;1.20;1.20;;;18.60;65.30;;;;;;5068329;28;43462;-70
2023/04/23 07:08:43;;;;;;;1.13;1.13;;;18.60;65.60;;;;;;5063137;28;44034;-70
2023/04/23 07:11:11;;;;;;;1.10;1.10;;;18.70;65.40;;;;;;5067345;28;43452;-71
2023/04/23 07:13:41;;;;;;;1.20;1.10;;;18.80;65.10;;;;;;5068004;28;43433;-70
2023/04/23 07:16:09;;;;;;;1.03;1.03;;;18.80;64.90;;;;;;5067771;28;43344;-70
2023/04/23 07:18:37;;;;;;;1.30;1.30;;;18.80;64.90;;;;;;5065052;28;43875;-70
2023/04/23 07:21:05;;;;;;;1.20;1.20;;;18.80;65.10;;;;;;5067400;28;43548;-70
2023/04/23 07:23:32;;;;;;;1.30;1.30;;;18.70;65.00;;;;;;5063189;28;43403;-70
2023/04/23 07:26:00;;;;;;;1.10;1.10;;;18.70;65.00;;;;;;5066583;28;43903;-70
2023/04/23 07:28:28;;;;;;;1.10;1.10;;;18.70;64.90;;;;;;5066926;28;43869;-71
2023/04/23 07:30:58;;;;;;;1.10;1.10;;;18.70;64.80;;;;;;5067428;28;43421;-70
2023/04/23 07:33:26;;;;;;;1.23;1.23;;;18.60;64.90;;;;;;5066420;28;43900;-70
2023/04/23 07:35:53;;;;;;;1.10;1.10;;;18.60;65.60;;;;;;5063398;28;44441;-70
2023/04/23 07:38:21;;;;;;;1.10;1.10;;;18.50;65.50;;;;;;5049087;28;45706;-70
2023/04/23 07:40:49;;;;;;;1.20;1.20;;;18.60;65.50;;;;;;5066558;28;43458;-70
2023/04/23 07:43:17;;;;;;;1.20;1.20;;;18.50;65.30;;;;;;5067262;28;44048;-70
2023/04/23 07:45:45;;;;;;;1.10;1.10;;;18.50;65.40;;;;;;5067650;28;43551;-69
2023/04/23 07:48:15;;;;;;;1.10;1.10;;;18.40;65.80;;;;;;5066785;28;46091;-70
2023/04/23 07:50:42;;;;;;;1.10;1.10;;;18.50;65.90;;;;;;5064455;27;43482;-70
2023/04/23 07:53:10;;;;;;;1.03;1.03;;;18.40;65.60;;;;;;5066525;28;43402;-69
2023/04/23 07:55:38;;;;;;;1.20;1.20;;;18.40;65.60;;;;;;5067603;28;43668;-71
2023/04/23 07:58:06;;;;;;;1.10;1.10;;;18.40;65.60;;;;;;5066787;28;43642;-70
2023/04/23 08:00:34;;;;;;;1.30;1.30;;;18.40;65.90;;;;;;5066909;28;43490;-70
2023/04/23 08:03:03;;;;;;;1.07;1.07;;;18.40;66.10;;;;;;5066368;28;43501;-71
2023/04/23 08:05:33;;;;;;;1.00;1.00;;;18.50;66.00;;;;;;5052581;28;43467;-71
2023/04/23 08:08:02;;;;;;;1.20;1.20;;;18.60;65.60;;;;;;5064603;28;43648;-71
2023/04/23 08:10:30;;;;;;;1.30;1.30;;;18.70;65.50;;;;;;5060489;28;43394;-70
2023/04/23 08:12:58;;;;;;;1.10;1.10;;;18.70;65.20;;;;;;5060383;28;43426;-71
2023/04/23 08:15:26;;;;;;;1.27;1.27;;;18.60;65.20;;;;;;5064085;28;43380;-70
2023/04/23 08:17:54;;;;;;;1.20;1.20;;;18.60;65.50;;;;;;5061862;28;44107;-70
2023/04/23 08:20:24;;;;;;;0.90;0.90;;;18.60;65.50;;;;;;5060470;28;43351;-70
2023/04/23 08:22:54;;;;;;;1.10;1.10;;;18.60;65.30;;;;;;5066458;28;43494;-69
2023/04/23 08:25:23;;;;;;;1.20;1.20;;;18.60;65.20;;;;;;5066790;28;43448;-70
2023/04/23 08:27:52;;;;;;;1.20;1.20;;;18.50;65.30;;;;;;5061749;28;45923;-71
2023/04/23 08:30:20;;;;;;;1.23;1.23;;;18.50;65.70;;;;;;5063049;28;43411;-71
2023/04/23 08:32:49;;;;;;;1.10;1.10;;;18.50;65.80;;;;;;5065231;28;43658;-71
2023/04/23 08:35:18;;;;;;;1.10;1.10;;;18.50;65.70;;;;;;5061478;28;43351;-70
2023/04/23 08:37:46;;;;;;;1.10;1.10;;;18.50;65.60;;;;;;5061135;28;46099;-71
2023/04/23 08:40:17;;;;;;;1.23;1.20;;;18.40;65.50;;;;;;5064440;28;44994;-71
2023/04/23 08:42:49;;;;;;;1.10;1.10;;;18.40;65.80;;;;;;5059396;28;43855;-70
2023/04/23 08:45:20;;;;;;;1.30;1.30;;;18.40;66.10;;;;;;5058211;28;43923;-71
2023/04/23 08:47:47;;;;;;;1.10;1.10;;;18.40;65.90;;;;;;5065690;28;43894;-70
2023/04/23 08:50:17;;;;;;;1.00;1.00;;;18.40;65.70;;;;;;5062140;28;43493;-70
2023/04/23 08:52:47;;;;;;;1.10;1.10;;;18.40;65.70;;;;;;5065657;28;43897;-71
2023/04/23 08:55:17;;;;;;;1.10;1.10;;;18.40;65.80;;;;;;5066218;28;43478;-70
2023/04/23 08:57:46;;;;;;;1.17;1.17;;;18.40;66.20;;;;;;5065961;28;43927;-71
2023/04/23 09:00:16;;;;;;;1.43;1.30;;;18.40;66.30;;;;;;5062475;28;43483;-70
2023/04/23 09:02:44;;;;;;;6.00;1.60;;;18.50;66.10;;;;;;5062611;28;43988;-70
2023/04/23 09:05:13;;;;;;;4.30;1.33;;;18.60;65.60;;;;;;5066122;28;43447;-69
2023/04/23 09:07:41;;;;;;;2.63;1.30;;;18.60;65.40;;;;;;5065950;28;43959;-71
2023/04/23 09:10:10;;;;;;;1.30;1.30;;;18.60;65.10;;;;;;5066014;28;43464;-70
2023/04/23 09:12:43;;;;;;;2.33;1.30;;;18.60;65.60;;;;;;5059309;28;43577;-71
2023/04/23 09:15:12;;;;;;;2.80;1.23;;;18.60;65.60;;;;;;5058686;28;43421;-70
2023/04/23 09:17:43;;;;;;;2.13;1.40;;;18.60;65.40;;;;;;5058943;28;44798;-71
2023/04/23 09:20:12;;;;;;;1.60;1.30;;;18.60;65.30;;;;;;5063177;28;45017;-70
2023/04/23 09:22:41;;;;;;;1.63;1.30;;;18.50;65.20;;;;;;5059979;28;43463;-71
2023/04/23 09:25:15;;;;;;;1.70;1.60;;;18.50;65.40;;;;;;5066100;28;43424;-70
2023/04/23 09:27:44;;;;;;;1.50;1.50;;;18.50;66.00;;;;;;5061508;28;43862;-70
2023/04/23 09:30:13;;;;;;;1.50;1.50;;;18.40;65.80;;;;;;5063609;28;43335;-71
2023/04/23 09:32:45;;;;;;;1.50;1.40;;;18.40;65.50;;;;;;5060612;28;43432;-71
2023/04/23 09:35:18;;;;;;;2.07;1.60;;;18.40;65.50;;;;;;5064321;28;43546;-71
2023/04/23 09:37:47;;;;;;;2.83;1.60;;;18.40;65.60;;;;;;5065195;28;43923;-70
2023/04/23 09:40:16;;;;;;;1.50;1.50;;;18.40;66.00;;;;;;5063710;28;45292;-70
2023/04/23 09:42:49;;;;;;;2.87;1.40;;;18.40;66.20;;;;;;5062023;28;43457;-71
2023/04/23 09:45:17;;;;;;;1.43;1.30;;;18.40;65.80;;;;;;5061862;28;43454;-70
2023/04/23 09:47:49;;;;;;;1.57;1.40;;;18.40;65.80;;;;;;5061207;28;43984;-70
2023/04/23 09:50:17;;;;;;;1.40;1.37;;;18.40;65.90;;;;;;5065709;28;43474;-71
2023/04/23 09:52:45;;;;;;;1.20;1.20;;;18.40;66.00;;;;;;5066994;28;43406;-70
2023/04/23 09:55:12;;;;;;;1.20;1.20;;;18.40;66.60;;;;;;5069368;28;43414;-70
2023/04/23 09:57:41;;;;;;;1.20;1.20;;;18.40;66.50;;;;;;5062647;28;45975;-70
2023/04/23 10:00:18;;;;;;;1.50;1.40;;;18.50;66.20;;;;;;5068563;28;43995;-70
2023/04/23 10:02:50;;;;;;;1.40;1.40;;;18.60;65.90;;;;;;5067881;28;43400;-70
2023/04/23 10:05:20;;;;;;;1.50;1.50;;;18.60;65.60;;;;;;5067325;28;43452;-71
2023/04/23 10:07:56;;;;;;;1.23;1.23;;;18.60;65.60;;;;;;5068208;28;43619;-71
2023/04/23 10:10:24;;;;;;;1.20;1.20;;;18.60;66.00;;;;;;5060723;28;43409;-70
2023/04/23 10:12:53;;;;;;;1.70;1.60;;;18.60;65.90;;;;;;5068065;28;43976;-71
2023/04/23 10:15:27;;;;;;;1.10;1.10;;;18.60;65.60;;;;;;5062203;28;43430;-70
2023/04/23 10:17:55;;;;;;;1.33;1.20;;;18.60;65.70;;;;;;5060752;28;45853;-70
2023/04/23 10:20:23;;;;;;;1.20;1.20;;;18.50;65.90;;;;;;5068114;28;43458;-71
2023/04/23 10:22:51;;;;;;;1.30;1.30;;;18.50;66.30;;;;;;5068484;28;43401;-70
2023/04/23 10:25:19;;;;;;;1.40;1.30;;;18.50;66.30;;;;;;5065290;28;43513;-71
2023/04/23 10:27:47;;;;;;;1.00;1.00;;;18.50;65.90;;;;;;5057126;28;43959;-71
2023/04/23 10:30:21;;;;;;;1.10;1.10;;;18.50;66.10;;;;;;5065533;28;44685;-70
2023/04/23 10:32:51;;;;;;;1.47;1.37;;;18.40;66.20;;;;;;5067558;28;43413;-70
2023/04/23 10:35:19;;;;;;;1.20;1.20;;;18.40;66.40;;;;;;5059976;28;43410;-71
2023/04/23 10:37:47;;;;;;;1.30;1.20;;;18.40;66.70;;;;;;5062417;28;43945;-71
2023/04/23 10:40:20;;;;;;;1.30;1.20;;;18.50;66.40;;;;;;5062983;28;44034;-70
2023/04/23 10:42:48;;;;;;;1.40;1.40;;;18.40;66.20;;;;;;5067895;28;43299;-70
2023/04/23 10:45:17;;;;;;;1.40;1.40;;;18.40;66.40;;;;;;5059012;28;43487;-70
2023/04/23 10:47:48;;;;;;;1.10;1.10;;;18.40;66.70;;;;;;5059446;28;45666;-71
2023/04/23 10:50:22;;;;;;;1.20;1.20;;;18.40;66.90;;;;;;5066310;28;44711;-70
2023/04/23 10:52:52;;;;;;;1.47;1.10;;;18.50;66.80;;;;;;5059502;28;43394;-70
2023/04/23 10:55:21;;;;;;;1.20;1.20;;;18.50;66.60;;;;;;5067096;28;43493;-70
2023/04/23 10:57:57;;;;;;;1.00;1.00;;;18.60;66.20;;;;;;5067835;28;43923;-71
2023/04/23 11:00:28;;;;;;;1.47;1.40;;;18.70;65.90;;;;;;5068013;28;43947;-70
2023/04/23 11:02:56;;;;;;;1.10;1.10;;;18.70;65.70;;;;;;5064907;28;43391;-71
2023/04/23 11:05:28;;;;;;;1.50;1.50;;;18.70;66.00;;;;;;5060517;28;43843;-70
2023/04/23 11:08:06;;;;;;;1.17;1.17;;;18.70;66.10;;;;;;5059732;28;45945;-71
2023/04/23 11:10:56;;;;;;;1.20;1.20;;;18.70;65.80;;;;;;5064830;28;44075;-71
2023/04/23 11:13:26;;;;;;;1.40;1.30;;;18.60;65.70;;;;;;5065626;28;43372;-70
2023/04/23 11:16:14;;;;;;;1.13;1.13;;;18.60;65.90;;;;;;5067927;28;43425;-70
2023/04/23 11:18:58;;;;;;;1.30;1.23;;;18.50;66.20;;;;;;5053525;28;45665;-70
2023/04/23 11:22:02;;;;;;;1.37;1.27;;;18.50;66.40;;;;;;5061280;28;43451;-71
2023/04/23 11:24:35;;;;;;;1.20;1.20;;;18.50;66.20;;;;;;5062559;28;43418;-71
2023/04/23 11:27:05;;;;;;;1.30;1.30;;;18.50;66.10;;;;;;5057963;28;43914;-71
2023/04/23 11:29:33;;;;;;;1.37;1.37;;;18.50;66.20;;;;;;5067358;28;43962;-71
2023/04/23 11:32:01;;;;;;;1.03;1.03;;;18.40;66.20;;;;;;5065486;28;44680;-71
2023/04/23 11:34:32;;;;;;;1.20;1.20;;;18.40;66.70;;;;;;5067273;28;43426;-71
2023/04/23 11:37:03;;;;;;;1.30;1.30;;;18.50;66.60;;;;;;5055188;28;43971;-70
2023/04/23 11:39:31;;;;;;;1.30;1.30;;;18.60;66.20;;;;;;5062736;28;43752;-71
2023/04/23 11:42:01;;;;;;;1.20;1.20;;;18.60;66.00;;;;;;5067380;28;43554;-70
2023/04/23 11:44:30;;;;;;;1.30;1.30;;;18.60;65.60;;;;;;5067000;28;43446;-71
2023/04/23 11:47:00;;;;;;;1.23;1.23;;;18.60;65.70;;;;;;5066306;28;43489;-70
2023/04/23 11:49:28;;;;;;;1.40;1.40;;;18.60;66.10;;;;;;5065893;28;45910;-70
2023/04/23 11:51:59;;;;;;;1.40;1.40;;;18.60;66.00;;;;;;5063214;28;44429;-71
2023/04/23 11:54:29;;;;;;;1.10;1.10;;;18.60;65.90;;;;;;5063642;28;43444;-70
2023/04/23 11:56:58;;;;;;;1.20;1.20;;;18.50;65.90;;;;;;5067438;28;43483;-69
2023/04/23 11:59:26;;;;;;;1.30;1.30;;;18.50;65.90;;;;;;5066961;28;43951;-69
2023/04/23 12:01:55;;;;;;;1.10;1.10;;;18.50;66.40;;;;;;5065183;28;44518;-70
2023/04/23 12:04:24;;;;;;;1.20;1.20;;;18.50;66.30;;;;;;5062878;28;43987;-70
2023/04/23 12:06:54;;;;;;;1.07;1.07;;;18.50;66.20;;;;;;5061943;28;43573;-70
2023/04/23 12:09:22;;;;;;;1.30;1.30;;;18.50;66.20;;;;;;5064323;28;45175;-70
2023/04/23 12:11:52;;;;;;;1.20;1.20;;;18.50;66.40;;;;;;5066323;28;43481;-71
2023/04/23 12:14:22;;;;;;;1.20;1.20;;;18.40;66.40;;;;;;5058431;28;43912;-70
2023/04/23 12:16:51;;;;;;;1.20;1.20;;;18.40;66.70;;;;;;5062551;28;43462;-71
2023/04/23 12:19:20;;;;;;;1.40;1.30;;;18.40;66.50;;;;;;5062442;28;43880;-71
2023/04/23 12:21:53;;;;;;;1.20;1.20;;;18.40;66.40;;;;;;5066409;28;43519;-70
2023/04/23 12:24:22;;;;;;;1.30;1.30;;;18.40;66.40;;;;;;5066574;28;43377;-70
2023/04/23 12:26:53;;;;;;;1.30;1.30;;;18.40;66.50;;;;;;5066827;28;43379;-70
2023/04/23 12:29:21;;;;;;;1.20;1.20;;;18.40;66.70;;;;;;5051063;28;45461;-70
2023/04/23 12:31:50;;;;;;;1.10;1.10;;;18.40;66.70;;;;;;5061082;28;43471;-70
2023/04/23 12:34:19;;;;;;;1.10;1.10;;;18.50;66.50;;;;;;5064645;28;43447;-70
2023/04/23 12:36:48;;;;;;;1.10;1.10;;;18.60;66.10;;;;;;5060129;28;43450;-71
2023/04/23 12:39:28;;;;;;;1.40;1.40;;;18.70;66.00;;;;;;5061377;28;43849;-70
2023/04/23 12:42:01;;;;;;;1.10;1.10;;;18.70;65.90;;;;;;5061328;28;44087;-71
2023/04/23 12:44:29;;;;;;;1.10;1.10;;;18.70;65.90;;;;;;5066412;28;44342;-70
2023/04/23 12:46:58;;;;;;;1.30;1.30;;;18.70;66.00;;;;;;5061733;28;43698;-71
2023/04/23 12:49:29;;;;;;;1.20;1.20;;;18.70;65.90;;;;;;5065058;28;45755;-70
2023/04/23 12:51:59;;;;;;;1.33;1.33;;;18.70;65.90;;;;;;5066357;28;43406;-70
2023/04/23 12:54:31;;;;;;;1.30;1.20;;;18.60;65.90;;;;;;5066424;28;43349;-70
2023/04/23 12:57:01;;;;;;;1.30;1.30;;;18.60;66.10;;;;;;5065098;28;43383;-70
2023/04/23 12:59:29;;;;;;;1.20;1.20;;;18.60;66.20;;;;;;5062324;28;43924;-71